createdAt,value
2022-11-08T00:02:20.868Z,100167.53
2022-11-08T00:04:47.496Z,100166.84
2022-11-08T00:07:32.486Z,100168.72
2022-11-08T00:10:17.704Z,100170.34
2022-11-08T00:13:03.065Z,100167.75
2022-11-08T00:15:29.665Z,100169.09
2022-11-08T00:17:56.667Z,100163.31
2022-11-08T00:20:23.201Z,100167.25
2022-11-08T00:22:50.064Z,100173.34
2022-11-08T00:25:16.848Z,100165.81
2022-11-08T00:27:43.385Z,100166.63
2022-11-08T00:30:10.426Z,100165.38
2022-11-08T00:32:36.956Z,100166.63
2022-11-08T00:35:03.759Z,100170.94
2022-11-08T00:37:30.300Z,100162.06
2022-11-08T00:39:56.875Z,100173.16
2022-11-08T00:42:23.449Z,100163.97
2022-11-08T00:44:49.989Z,100163.66
2022-11-08T00:47:16.564Z,100170.28
2022-11-08T00:49:43.185Z,100175.31
2022-11-08T00:52:09.847Z,100156.22
2022-11-08T00:54:36.534Z,100154.50
2022-11-08T00:57:03.199Z,100165.22
2022-11-08T00:59:29.719Z,100158.66
2022-11-08T01:01:56.825Z,100153.88
2022-11-08T01:04:23.516Z,100154.97
2022-11-08T01:06:50.478Z,100163.25
2022-11-08T01:09:17.541Z,100162.88
2022-11-08T01:11:46.877Z,100160.38
2022-11-08T01:14:15.078Z,100156.44
2022-11-08T01:16:42.717Z,100159.84
2022-11-08T01:19:09.997Z,100162.31
2022-11-08T01:21:36.975Z,100164.81
2022-11-08T01:24:03.719Z,100161.91
2022-11-08T01:26:30.301Z,100149.41
2022-11-08T01:28:57.829Z,100152.97
2022-11-08T01:31:29.898Z,100145.84
2022-11-08T01:33:57.447Z,100150.25
2022-11-08T01:36:25.980Z,100151.53
2022-11-08T01:38:53.773Z,100149.34
2022-11-08T01:41:22.555Z,100147.31
2022-11-08T01:43:51.333Z,100151.69
2022-11-08T01:46:36.441Z,100154.22
2022-11-08T01:49:28.120Z,100150.50
2022-11-08T01:51:58.673Z,100148.75
2022-11-08T01:54:35.853Z,100143.34
2022-11-08T01:57:06.792Z,100142.22
2022-11-08T01:59:35.743Z,100146.34
2022-11-08T02:02:02.835Z,100138.16
2022-11-08T02:04:29.712Z,100146.81
2022-11-08T02:06:56.749Z,100146.59
2022-11-08T02:09:23.322Z,100142.16
2022-11-08T02:11:51.567Z,100139.97
2022-11-08T02:14:18.376Z,100142.00
2022-11-08T02:16:45.213Z,100142.16
2022-11-08T02:19:19.865Z,100140.50
2022-11-08T02:21:52.997Z,100134.44
2022-11-08T02:24:19.681Z,100131.97
2022-11-08T02:26:47.756Z,100133.09
2022-11-08T02:29:27.504Z,100132.56
2022-11-08T02:31:55.679Z,100139.63
2022-11-08T02:34:43.719Z,100133.88
2022-11-08T02:37:12.306Z,100136.69
2022-11-08T02:39:38.883Z,100125.69
2022-11-08T02:42:05.525Z,100132.97
2022-11-08T02:44:32.208Z,100126.22
2022-11-08T02:46:58.740Z,100124.34
2022-11-08T02:49:25.468Z,100119.94
2022-11-08T02:51:53.436Z,100115.81
2022-11-08T02:54:20.221Z,100128.53
2022-11-08T02:56:46.849Z,100121.44
2022-11-08T02:59:14.129Z,100118.63
2022-11-08T03:01:41.331Z,100119.66
2022-11-08T03:04:08.301Z,100122.78
2022-11-08T03:06:35.160Z,100120.53
2022-11-08T03:09:02.054Z,100121.84
2022-11-08T03:11:28.619Z,100122.97
2022-11-08T03:13:55.178Z,100123.72
2022-11-08T03:16:22.139Z,100123.53
2022-11-08T03:18:48.786Z,100124.66
2022-11-08T03:21:15.325Z,100116.75
2022-11-08T03:23:42.802Z,100129.31
2022-11-08T03:26:09.325Z,100115.53
2022-11-08T03:28:36.524Z,100122.38
2022-11-08T03:31:03.402Z,100117.47
2022-11-08T03:33:30.116Z,100116.19
2022-11-08T03:35:56.720Z,100115.03
2022-11-08T03:38:23.964Z,100118.88
2022-11-08T03:40:51.262Z,100106.88
2022-11-08T03:43:18.125Z,100118.13
2022-11-08T03:45:45.656Z,100119.53
2022-11-08T03:48:12.824Z,100117.50
2022-11-08T03:50:39.696Z,100118.41
2022-11-08T03:53:06.266Z,100126.03
2022-11-08T03:55:32.810Z,100109.91
2022-11-08T03:57:59.378Z,100113.44
2022-11-08T04:00:28.701Z,100113.44
2022-11-08T04:03:01.217Z,100116.59
2022-11-08T04:05:28.463Z,100126.28
2022-11-08T04:07:55.477Z,100114.38
2022-11-08T04:10:22.007Z,100110.28
2022-11-08T04:13:07.422Z,100108.78
2022-11-08T04:15:34.223Z,100114.53
2022-11-08T04:18:19.680Z,100119.97
2022-11-08T04:21:06.624Z,100104.28
2022-11-08T04:23:35.139Z,100109.78
2022-11-08T04:26:05.027Z,100104.00
2022-11-08T04:28:35.264Z,100109.38
2022-11-08T04:31:05.918Z,100107.56
2022-11-08T04:33:33.011Z,100111.25
2022-11-08T04:36:09.144Z,100100.09
2022-11-08T04:38:36.212Z,100102.16
2022-11-08T04:41:05.142Z,100100.22
2022-11-08T04:43:32.950Z,100097.53
2022-11-08T04:46:01.861Z,100095.28
2022-11-08T04:48:28.673Z,100094.41
2022-11-08T04:50:55.303Z,100088.88
2022-11-08T04:53:22.668Z,100086.38
2022-11-08T04:55:49.245Z,100086.63
2022-11-08T04:58:16.206Z,100077.09
2022-11-08T05:00:42.896Z,100082.28
2022-11-08T05:03:09.451Z,100072.41
2022-11-08T05:05:36.014Z,100088.38
2022-11-08T05:08:02.562Z,100092.47
2022-11-08T05:10:29.113Z,100077.97
2022-11-08T05:12:57.502Z,100087.28
2022-11-08T05:15:24.153Z,100081.16
2022-11-08T05:17:50.741Z,100082.16
2022-11-08T05:20:36.188Z,100074.56
2022-11-08T05:23:21.657Z,100074.03
2022-11-08T05:25:48.255Z,100069.78
2022-11-08T05:28:15.292Z,100070.16
2022-11-08T05:30:42.386Z,100064.97
2022-11-08T05:33:09.429Z,100070.25
2022-11-08T05:35:36.307Z,100062.25
2022-11-08T05:38:02.911Z,100067.91
2022-11-08T05:40:33.383Z,100063.09
2022-11-08T05:43:00.700Z,100062.16
2022-11-08T05:45:27.689Z,100064.34
2022-11-08T05:47:54.676Z,100054.53
2022-11-08T05:50:21.790Z,100059.97
2022-11-08T05:52:48.395Z,100057.19
2022-11-08T05:55:15.068Z,100068.06
2022-11-08T05:57:43.603Z,100052.81
2022-11-08T06:00:12.121Z,100053.56
2022-11-08T06:02:39.502Z,100054.28
2022-11-08T06:05:07.877Z,100052.38
2022-11-08T06:07:35.835Z,100054.19
2022-11-08T06:10:03.141Z,100058.53
2022-11-08T06:12:29.840Z,100050.25
2022-11-08T06:14:56.394Z,100054.50
2022-11-08T06:17:26.330Z,100047.47
2022-11-08T06:19:57.421Z,100050.75
2022-11-08T06:22:23.991Z,100048.97
2022-11-08T06:24:50.515Z,100036.81
2022-11-08T06:27:17.548Z,100036.94
2022-11-08T06:29:44.146Z,100044.78
2022-11-08T06:32:11.015Z,100041.63
2022-11-08T06:34:37.700Z,100046.63
2022-11-08T06:37:05.021Z,100037.00
2022-11-08T06:39:31.862Z,100037.69
2022-11-08T06:41:58.927Z,100037.09
2022-11-08T06:44:25.556Z,100037.50
2022-11-08T06:46:55.624Z,100037.28
2022-11-08T06:49:23.831Z,100035.56
2022-11-08T06:51:51.407Z,100031.94
2022-11-08T06:54:21.107Z,100046.16
2022-11-08T06:56:49.950Z,100047.47
2022-11-08T06:59:16.880Z,100057.03
2022-11-08T07:01:45.636Z,100053.38
2022-11-08T07:04:12.589Z,100051.13
2022-11-08T07:06:39.515Z,100052.72
2022-11-08T07:09:06.509Z,100061.66
2022-11-08T07:11:33.194Z,100051.16
2022-11-08T07:13:59.733Z,100057.69
2022-11-08T07:16:26.321Z,100055.34
2022-11-08T07:18:55.552Z,100057.97
2022-11-08T07:21:23.425Z,100053.59
2022-11-08T07:23:50.121Z,100046.88
2022-11-08T07:26:16.888Z,100064.19
2022-11-08T07:28:43.513Z,100047.28
2022-11-08T07:31:11.109Z,100044.72
2022-11-08T07:33:37.696Z,100038.38
2022-11-08T07:36:04.565Z,100040.53
2022-11-08T07:38:31.187Z,100044.00
2022-11-08T07:40:59.289Z,100042.53
2022-11-08T07:43:27.539Z,100047.09
2022-11-08T07:45:59.982Z,100040.06
2022-11-08T07:48:28.278Z,100049.00
2022-11-08T07:50:59.771Z,100041.78
2022-11-08T07:53:46.108Z,100037.38
2022-11-08T07:56:12.789Z,100028.34
2022-11-08T07:58:44.040Z,100028.63
2022-11-08T08:01:33.427Z,100036.78
2022-11-08T08:04:00.932Z,100033.88
2022-11-08T08:06:27.849Z,100035.91
2022-11-08T08:08:55.444Z,100044.44
2022-11-08T08:11:26.234Z,100038.97
2022-11-08T08:13:58.769Z,100035.28
2022-11-08T08:16:51.518Z,100031.25
2022-11-08T08:19:30.042Z,100025.66
2022-11-08T08:22:08.399Z,100019.03
2022-11-08T08:24:39.196Z,100011.06
2022-11-08T08:27:32.226Z,100011.56
2022-11-08T08:30:20.833Z,100011.59
2022-11-08T08:33:02.228Z,100013.53
2022-11-08T08:35:38.307Z,100013.31
2022-11-08T08:38:07.376Z,100004.84
2022-11-08T08:40:35.852Z,99999.69
2022-11-08T08:43:23.425Z,99995.44
2022-11-08T08:45:52.169Z,99985.06
2022-11-08T08:48:29.087Z,99980.91
2022-11-08T08:50:56.642Z,99983.72
2022-11-08T08:53:23.905Z,99979.47
2022-11-08T08:55:52.478Z,99981.00
2022-11-08T08:58:25.387Z,99978.53
2022-11-08T09:04:12.965Z,99967.84
2022-11-08T09:06:52.592Z,99967.88
2022-11-08T09:09:36.676Z,99963.06
2022-11-08T09:12:03.593Z,99969.72
2022-11-08T09:14:30.231Z,99959.94
2022-11-08T09:16:56.913Z,99951.81
2022-11-08T09:19:23.613Z,99946.19
2022-11-08T09:21:50.546Z,99933.31
2022-11-08T09:24:17.233Z,99948.22
2022-11-08T09:26:43.959Z,99958.41
2022-11-08T09:29:11.720Z,99942.56
2022-11-08T09:31:38.264Z,99953.47
2022-11-08T09:34:04.840Z,99945.00
2022-11-08T09:36:31.372Z,99948.63
2022-11-08T09:38:57.925Z,99946.06
2022-11-08T09:41:43.665Z,99947.63
2022-11-08T09:44:33.112Z,99940.97
2022-11-08T09:47:11.544Z,99939.06
2022-11-08T09:49:44.836Z,99928.63
2022-11-08T09:52:21.338Z,99928.72
2022-11-08T09:54:48.815Z,99929.84
2022-11-08T09:57:27.271Z,99932.47
2022-11-08T10:00:01.908Z,99916.78
2022-11-08T10:02:34.330Z,99907.72
2022-11-08T10:05:06.598Z,99909.41
2022-11-08T10:07:52.459Z,99901.69
2022-11-08T10:10:37.457Z,99900.44
2022-11-08T10:13:32.637Z,99896.91
2022-11-08T10:16:36.553Z,99898.34
2022-11-08T10:19:06.271Z,99880.06
2022-11-08T10:21:54.036Z,99882.38
2022-11-08T10:24:44.816Z,99893.00
2022-11-08T10:27:21.841Z,99873.41
2022-11-08T10:29:57.992Z,99893.31
2022-11-08T10:32:25.337Z,99883.59
2022-11-08T10:35:02.387Z,99870.00
2022-11-08T10:37:32.258Z,99886.50
2022-11-08T10:40:05.682Z,99879.72
2022-11-08T10:43:17.409Z,99877.69
2022-11-08T10:45:44.163Z,99882.59
2022-11-08T10:48:14.196Z,99858.06
2022-11-08T10:50:49.256Z,99855.44
2022-11-08T10:53:31.113Z,99861.91
2022-11-08T10:56:02.566Z,99860.28
2022-11-08T10:58:36.653Z,99860.09
2022-11-08T11:01:16.632Z,99854.84
2022-11-08T11:03:45.201Z,99854.69
2022-11-08T11:06:32.765Z,99851.38
2022-11-08T11:09:18.014Z,99837.66
2022-11-08T11:11:45.328Z,99831.81
2022-11-08T11:14:22.772Z,99847.00
2022-11-08T11:17:08.690Z,99828.25
2022-11-08T11:19:35.338Z,99836.38
2022-11-08T11:22:05.918Z,99834.34
2022-11-08T11:24:46.142Z,99835.53
2022-11-08T11:27:24.065Z,99831.97
2022-11-08T11:30:30.406Z,99830.75
2022-11-08T11:33:02.659Z,99825.16
2022-11-08T11:35:36.827Z,99817.78
2022-11-08T11:38:10.774Z,99813.94
2022-11-08T11:40:45.356Z,99820.38
2022-11-08T11:43:21.083Z,99805.09
2022-11-08T11:45:55.235Z,99807.66
2022-11-08T11:48:27.679Z,99806.03
2022-11-08T11:50:55.471Z,99812.72
2022-11-08T11:53:27.810Z,99801.75
2022-11-08T11:56:03.377Z,99799.78
2022-11-08T11:58:35.736Z,99793.28
2022-11-08T12:01:15.936Z,99782.47
2022-11-08T12:04:01.510Z,99786.00
2022-11-08T12:06:57.737Z,99775.31
2022-11-08T12:09:53.573Z,99776.84
2022-11-08T12:12:31.609Z,99769.75
2022-11-08T12:15:13.330Z,99780.75
2022-11-08T12:18:04.609Z,99765.19
2022-11-08T12:20:51.553Z,99763.66
2022-11-08T12:23:30.329Z,99764.31
2022-11-08T12:26:08.850Z,99768.22
2022-11-08T12:29:03.166Z,99778.22
2022-11-08T12:31:35.008Z,99772.72
2022-11-08T12:34:20.379Z,99771.34
2022-11-08T12:37:02.931Z,99773.19
2022-11-08T12:39:35.774Z,99773.22
2022-11-08T12:42:14.576Z,99781.25
2022-11-08T12:44:49.991Z,99769.31
2022-11-08T12:47:51.770Z,99774.34
2022-11-08T12:50:18.360Z,99752.78
2022-11-08T12:53:11.160Z,99750.38
2022-11-08T12:55:41.445Z,99745.03
2022-11-08T12:58:14.500Z,99737.44
2022-11-08T13:00:43.945Z,99743.47
2022-11-08T13:03:22.495Z,99744.88
2022-11-08T13:05:58.782Z,99751.09
2022-11-08T13:08:37.142Z,99750.81
2022-11-08T13:11:07.917Z,99758.81
2022-11-08T13:13:55.868Z,99744.38
2022-11-08T13:16:28.502Z,99738.81
2022-11-08T13:18:58.062Z,99737.41
2022-11-08T13:21:28.146Z,99731.19
2022-11-08T13:24:42.772Z,99736.09
2022-11-08T13:27:35.036Z,99741.38
2022-11-08T13:30:16.612Z,99728.69
2022-11-08T13:32:43.057Z,99728.22
2022-11-08T13:35:24.081Z,99728.22
2022-11-08T13:38:12.225Z,99727.59
2022-11-08T13:41:03.513Z,99734.91
2022-11-08T13:43:33.027Z,99734.13
2022-11-08T13:46:27.785Z,99733.44
2022-11-08T13:49:05.115Z,99729.69
2022-11-08T13:51:36.315Z,99726.78
2022-11-08T13:54:21.060Z,99723.00
2022-11-08T13:56:54.434Z,99721.75
2022-11-08T13:59:29.916Z,99715.78
2022-11-08T14:02:21.288Z,99725.03
2022-11-08T14:04:47.860Z,99725.84
2022-11-08T14:07:41.792Z,99730.78
2022-11-08T14:10:32.592Z,99729.53
2022-11-08T14:13:25.162Z,99740.50
2022-11-08T14:16:00.669Z,99735.69
2022-11-08T14:18:33.632Z,99743.56
2022-11-08T14:21:03.584Z,99738.16
2022-11-08T14:23:32.972Z,99735.81
2022-11-08T14:26:07.033Z,99743.69
2022-11-08T14:28:39.831Z,99737.06
2022-11-08T14:31:22.733Z,99730.16
2022-11-08T14:33:50.194Z,99727.47
2022-11-08T14:36:19.604Z,99723.91
2022-11-08T14:39:01.700Z,99726.44
2022-11-08T14:41:29.409Z,99727.72
2022-11-08T14:43:58.503Z,99732.59
2022-11-08T14:46:39.672Z,99735.44
2022-11-08T14:49:17.995Z,99721.56
2022-11-08T14:51:45.828Z,99717.16
2022-11-08T14:54:18.565Z,99717.16
2022-11-08T14:56:46.270Z,99707.69
2022-11-08T14:59:14.312Z,99701.16
2022-11-08T15:01:45.582Z,99706.72
2022-11-08T15:04:16.033Z,99696.72
2022-11-08T15:06:49.984Z,99699.28
2022-11-08T15:09:30.541Z,99700.38
2022-11-08T15:12:01.283Z,99703.00
2022-11-08T15:14:32.639Z,99708.38
2022-11-08T15:17:03.088Z,99704.97
2022-11-08T15:19:41.099Z,99705.78
2022-11-08T15:22:29.534Z,99713.31
2022-11-08T15:25:29.292Z,99711.81
2022-11-08T15:27:58.683Z,99707.34
2022-11-08T15:30:31.349Z,99694.75
2022-11-08T15:32:58.354Z,99705.19
2022-11-08T15:35:34.204Z,99704.59
2022-11-08T15:38:03.378Z,99705.72
2022-11-08T15:40:32.685Z,99706.59
2022-11-08T15:43:00.225Z,99704.63
2022-11-08T15:45:33.332Z,99705.16
2022-11-08T15:48:10.518Z,99704.34
2022-11-08T15:50:37.022Z,99708.41
2022-11-08T15:53:05.075Z,99700.22
2022-11-08T15:55:36.736Z,99697.91
2022-11-08T15:58:04.652Z,99688.53
2022-11-08T16:00:36.275Z,99680.00
2022-11-08T16:03:03.249Z,99681.81
2022-11-08T16:05:34.420Z,99673.94
2022-11-08T16:08:00.967Z,99663.97
2022-11-08T16:10:31.541Z,99665.22
2022-11-08T16:13:00.737Z,99671.31
2022-11-08T16:15:30.396Z,99660.88
2022-11-08T16:17:57.029Z,99668.72
2022-11-08T16:20:25.499Z,99673.47
2022-11-08T16:22:52.235Z,99664.38
2022-11-08T16:25:18.914Z,99668.06
2022-11-08T16:27:52.723Z,99657.31
2022-11-08T16:30:19.633Z,99655.91
2022-11-08T16:32:46.195Z,99648.22
2022-11-08T16:35:12.826Z,99645.28
2022-11-08T16:37:40.393Z,99645.53
2022-11-08T16:40:33.245Z,99645.88
2022-11-08T16:43:00.340Z,99656.25
2022-11-08T16:45:50.566Z,99657.34
2022-11-08T16:48:17.990Z,99664.66
2022-11-08T16:50:45.932Z,99666.06
2022-11-08T16:53:20.662Z,99670.25
2022-11-08T16:55:48.050Z,99695.16
2022-11-08T16:58:15.015Z,99689.66
2022-11-08T17:00:44.183Z,99694.78
2022-11-08T17:03:16.611Z,99693.88
2022-11-08T17:05:43.154Z,99695.72
2022-11-08T17:08:10.213Z,99685.41
2022-11-08T17:10:36.820Z,99692.47
2022-11-08T17:13:03.736Z,99695.03
2022-11-08T17:15:30.782Z,99687.03
2022-11-08T17:17:58.870Z,99688.63
2022-11-08T17:20:26.616Z,99677.84
2022-11-08T17:22:54.041Z,99689.44
2022-11-08T17:25:23.412Z,99682.25
2022-11-08T17:27:51.259Z,99687.59
2022-11-08T17:30:23.815Z,99682.31
2022-11-08T17:32:53.317Z,99682.91
2022-11-08T17:35:20.613Z,99682.84
2022-11-08T17:37:47.549Z,99684.72
2022-11-08T17:40:14.949Z,99689.06
2022-11-08T17:42:41.833Z,99687.22
2022-11-08T17:45:10.305Z,99696.97
2022-11-08T17:47:40.564Z,99698.97
2022-11-08T17:50:08.686Z,99695.13
2022-11-08T17:52:36.352Z,99691.59
2022-11-08T17:55:03.867Z,99693.91
2022-11-08T17:57:30.455Z,99700.53
2022-11-08T17:59:57.137Z,99696.38
2022-11-08T18:02:23.831Z,99702.78
2022-11-08T18:04:51.129Z,99698.03
2022-11-08T18:07:17.915Z,99693.88
2022-11-08T18:09:44.671Z,99695.56
2022-11-08T18:12:11.191Z,99697.59
2022-11-08T18:14:37.827Z,99704.22
2022-11-08T18:17:05.014Z,99697.88
2022-11-08T18:19:32.101Z,99695.53
2022-11-08T18:22:00.221Z,99699.69
2022-11-08T18:24:26.840Z,99694.53
2022-11-08T18:26:53.902Z,99692.22
2022-11-08T18:29:20.729Z,99692.03
2022-11-08T18:31:47.408Z,99703.44
2022-11-08T18:34:14.436Z,99704.22
2022-11-08T18:36:41.128Z,99704.28
2022-11-08T18:39:07.787Z,99714.66
2022-11-08T18:41:34.889Z,99705.94
2022-11-08T18:44:02.765Z,99713.41
2022-11-08T18:46:34.278Z,99706.13
2022-11-08T18:49:06.843Z,99702.59
2022-11-08T18:51:33.578Z,99709.66
2022-11-08T18:54:00.190Z,99709.69
2022-11-08T18:56:26.809Z,99718.59
2022-11-08T18:58:54.184Z,99717.56
2022-11-08T19:01:20.801Z,99711.75
2022-11-08T19:03:47.471Z,99707.81
2022-11-08T19:06:14.597Z,99709.66
2022-11-08T19:08:41.258Z,99706.63
2022-11-08T19:11:11.478Z,99700.78
2022-11-08T19:13:39.940Z,99707.19
2022-11-08T19:16:08.574Z,99705.09
2022-11-08T19:18:35.902Z,99710.91
2022-11-08T19:21:14.498Z,99709.03
2022-11-08T19:23:41.517Z,99710.50
2022-11-08T19:26:16.016Z,99705.47
2022-11-08T19:28:45.452Z,99708.19
2022-11-08T19:31:14.805Z,99713.41
2022-11-08T19:33:41.549Z,99713.00
2022-11-08T19:36:13.467Z,99715.06
2022-11-08T19:38:41.096Z,99711.94
2022-11-08T19:41:11.010Z,99716.88
2022-11-08T19:43:39.194Z,99719.63
2022-11-08T19:46:09.755Z,99713.13
2022-11-08T19:48:39.116Z,99704.03
2022-11-08T19:51:09.300Z,99715.19
2022-11-08T19:53:36.009Z,99710.50
2022-11-08T19:56:05.791Z,99708.63
2022-11-08T19:58:34.742Z,99706.31
2022-11-08T20:01:16.732Z,99708.78
2022-11-08T20:03:44.748Z,99717.31
2022-11-08T20:06:12.706Z,99713.75
2022-11-08T20:08:41.003Z,99713.81
2022-11-08T20:11:35.653Z,99710.91
2022-11-08T20:14:03.894Z,99715.44
2022-11-08T20:16:37.878Z,99717.13
2022-11-08T20:19:08.781Z,99710.94
2022-11-08T20:21:35.586Z,99711.53
2022-11-08T20:24:02.596Z,99713.00
2022-11-08T20:26:29.470Z,99710.91
2022-11-08T20:28:57.250Z,99717.97
2022-11-08T20:31:25.612Z,99719.19
2022-11-08T20:33:53.499Z,99711.09
2022-11-08T20:36:23.492Z,99716.91
2022-11-08T20:38:54.146Z,99721.53
2022-11-08T20:41:20.800Z,99722.53
2022-11-08T20:43:47.569Z,99721.66
2022-11-08T20:46:17.111Z,99731.69
2022-11-08T20:48:44.269Z,99722.53
2022-11-08T20:51:13.154Z,99719.22
2022-11-08T20:53:40.101Z,99722.13
2022-11-08T20:56:18.553Z,99724.19
2022-11-08T20:58:47.486Z,99725.22
2022-11-08T21:01:17.170Z,99723.78
2022-11-08T21:03:45.631Z,99726.91
2022-11-08T21:06:18.114Z,99725.81
2022-11-08T21:11:34.790Z,99722.00
2022-11-08T21:14:02.980Z,99715.44
2022-11-08T21:16:33.095Z,99722.94
2022-11-08T21:19:05.966Z,99721.72
2022-11-08T21:21:33.224Z,99727.72
2022-11-08T21:23:59.807Z,99720.28
2022-11-08T21:26:26.826Z,99727.31
2022-11-08T21:28:53.637Z,99730.47
2022-11-08T21:31:20.494Z,99732.63
2022-11-08T21:33:47.358Z,99743.91
2022-11-08T21:36:14.197Z,99737.22
2022-11-08T21:38:40.914Z,99728.13
2022-11-08T21:41:09.982Z,99732.53
2022-11-08T21:43:38.993Z,99726.06
2022-11-08T21:46:17.966Z,99731.88
2022-11-08T21:48:45.873Z,99738.97
2022-11-08T21:51:13.205Z,99727.53
2022-11-08T21:53:49.333Z,99725.84
2022-11-08T21:56:19.889Z,99739.97
2022-11-08T21:58:46.393Z,99727.84
2022-11-08T22:01:13.337Z,99724.16
2022-11-08T22:03:40.242Z,99723.78
2022-11-08T22:06:07.159Z,99735.41
2022-11-08T22:08:33.738Z,99731.88
2022-11-08T22:11:00.677Z,99732.53
2022-11-08T22:13:27.839Z,99729.78
2022-11-08T22:15:54.357Z,99733.78
2022-11-08T22:18:36.399Z,99732.94
2022-11-08T22:21:27.480Z,99744.16
2022-11-08T22:23:55.126Z,99736.28
2022-11-08T22:26:22.399Z,99735.84
2022-11-08T22:28:48.932Z,99732.00
2022-11-08T22:31:15.646Z,99728.34
2022-11-08T22:33:42.211Z,99728.72
2022-11-08T22:36:09.013Z,99729.38
2022-11-08T22:38:36.037Z,99728.56
2022-11-08T22:41:02.799Z,99728.34
2022-11-08T22:43:33.201Z,99722.72
2022-11-08T22:45:59.943Z,99736.03
2022-11-08T22:48:26.499Z,99737.50
2022-11-08T22:50:53.032Z,99734.81
2022-11-08T22:53:19.862Z,99737.50
2022-11-08T22:55:47.085Z,99738.53
2022-11-08T22:58:13.620Z,99723.88
2022-11-08T23:00:40.376Z,99736.03
2022-11-08T23:03:06.882Z,99738.28
2022-11-08T23:05:33.437Z,99743.66
2022-11-08T23:07:59.933Z,99734.56
2022-11-08T23:10:26.881Z,99738.28
2022-11-08T23:13:12.519Z,99735.00
2022-11-08T23:15:58.343Z,99726.78
2022-11-08T23:18:27.017Z,99724.91
2022-11-08T23:21:15.374Z,99721.84
2022-11-08T23:24:01.158Z,99730.94
2022-11-08T23:26:46.097Z,99734.25
2022-11-08T23:29:31.760Z,99733.88
2022-11-08T23:31:58.904Z,99731.56
2022-11-08T23:34:26.090Z,99727.22
2022-11-08T23:36:55.202Z,99726.84
2022-11-08T23:39:21.704Z,99725.34
2022-11-08T23:42:06.863Z,99728.25
2022-11-08T23:44:33.488Z,99729.16
2022-11-08T23:47:01.133Z,99732.06
2022-11-08T23:49:28.047Z,99732.31
2022-11-08T23:51:55.164Z,99727.72
2022-11-08T23:54:21.951Z,99731.63
2022-11-08T23:56:48.957Z,99735.22
2022-11-08T23:59:16.249Z,99727.28
